sensor_id;sensor_type;location;lat;lon;timestamp;temperature;humidity
1468;DHT22;727;48.892;9.544;2022-09-27T00:00:37;10.80;99.90
1468;DHT22;727;48.892;9.544;2022-09-27T00:03:06;10.80;99.90
1468;DHT22;727;48.892;9.544;2022-09-27T00:05:33;10.80;99.90
1468;DHT22;727;48.892;9.544;2022-09-27T00:08:00;10.70;99.90
1468;DHT22;727;48.892;9.544;2022-09-27T00:10:26;10.70;99.90
1468;DHT22;727;48.892;9.544;2022-09-27T00:12:54;10.70;99.90
1468;DHT22;727;48.892;9.544;2022-09-27T00:15:22;10.70;99.90
1468;DHT22;727;48.892;9.544;2022-09-27T00:17:48;10.80;99.90
1468;DHT22;727;48.892;9.544;2022-09-27T00:20:17;10.70;99.90
1468;DHT22;727;48.892;9.544;2022-09-27T00:22:45;10.70;99.90
1468;DHT22;727;48.892;9.544;2022-09-27T00:25:12;10.70;99.90
1468;DHT22;727;48.892;9.544;2022-09-27T00:27:39;10.80;99.90
1468;DHT22;727;48.892;9.544;2022-09-27T00:30:06;10.80;99.90
1468;DHT22;727;48.892;9.544;2022-09-27T00:32:34;10.80;99.90
1468;DHT22;727;48.892;9.544;2022-09-27T00:35:01;10.80;99.90
1468;DHT22;727;48.892;9.544;2022-09-27T00:37:28;10.80;99.90
1468;DHT22;727;48.892;9.544;2022-09-27T00:39:54;10.80;99.90
1468;DHT22;727;48.892;9.544;2022-09-27T00:42:21;10.80;99.90
1468;DHT22;727;48.892;9.544;2022-09-27T00:45:06;10.80;99.90
1468;DHT22;727;48.892;9.544;2022-09-27T00:47:39;10.80;99.90
1468;DHT22;727;48.892;9.544;2022-09-27T00:50:12;10.70;99.90
1468;DHT22;727;48.892;9.544;2022-09-27T00:52:44;10.80;99.90
1468;DHT22;727;48.892;9.544;2022-09-27T00:55:16;10.70;99.90
1468;DHT22;727;48.892;9.544;2022-09-27T00:57:45;10.70;99.90
1468;DHT22;727;48.892;9.544;2022-09-27T01:00:13;10.80;99.90
1468;DHT22;727;48.892;9.544;2022-09-27T01:02:44;10.70;99.90
1468;DHT22;727;48.892;9.544;2022-09-27T01:05:14;10.70;99.90
1468;DHT22;727;48.892;9.544;2022-09-27T01:07:41;10.70;99.90
1468;DHT22;727;48.892;9.544;2022-09-27T01:10:08;10.70;99.90
1468;DHT22;727;48.892;9.544;2022-09-27T01:12:44;10.80;99.90
1468;DHT22;727;48.892;9.544;2022-09-27T01:15:22;10.70;99.90
1468;DHT22;727;48.892;9.544;2022-09-27T01:18:02;10.70;99.90
1468;DHT22;727;48.892;9.544;2022-09-27T01:20:51;10.80;99.90
1468;DHT22;727;48.892;9.544;2022-09-27T01:23:45;10.80;99.90
1468;DHT22;727;48.892;9.544;2022-09-27T01:26:24;10.80;99.90
1468;DHT22;727;48.892;9.544;2022-09-27T01:28:58;10.90;99.90
1468;DHT22;727;48.892;9.544;2022-09-27T01:31:34;10.90;99.90
1468;DHT22;727;48.892;9.544;2022-09-27T01:34:04;10.90;99.90
1468;DHT22;727;48.892;9.544;2022-09-27T01:36:41;10.90;99.90
1468;DHT22;727;48.892;9.544;2022-09-27T01:39:19;10.90;99.90
1468;DHT22;727;48.892;9.544;2022-09-27T01:41:52;10.90;99.90
1468;DHT22;727;48.892;9.544;2022-09-27T01:44:27;10.90;99.90
1468;DHT22;727;48.892;9.544;2022-09-27T01:47:00;10.90;99.90
1468;DHT22;727;48.892;9.544;2022-09-27T01:49:32;10.90;99.90
1468;DHT22;727;48.892;9.544;2022-09-27T01:52:03;10.90;99.90
1468;DHT22;727;48.892;9.544;2022-09-27T01:54:36;10.90;99.90
1468;DHT22;727;48.892;9.544;2022-09-27T01:57:06;10.80;99.90
1468;DHT22;727;48.892;9.544;2022-09-27T01:59:39;10.90;99.90
1468;DHT22;727;48.892;9.544;2022-09-27T02:02:09;10.90;99.90
1468;DHT22;727;48.892;9.544;2022-09-27T02:04:39;10.90;99.90
1468;DHT22;727;48.892;9.544;2022-09-27T02:07:11;10.90;99.90
1468;DHT22;727;48.892;9.544;2022-09-27T02:09:45;10.90;99.90
1468;DHT22;727;48.892;9.544;2022-09-27T02:12:18;10.90;99.90
1468;DHT22;727;48.892;9.544;2022-09-27T02:14:48;10.90;99.90
1468;DHT22;727;48.892;9.544;2022-09-27T02:17:22;10.90;99.90
1468;DHT22;727;48.892;9.544;2022-09-27T02:19:54;10.80;99.90
1468;DHT22;727;48.892;9.544;2022-09-27T02:22:31;10.80;99.90
1468;DHT22;727;48.892;9.544;2022-09-27T02:25:06;10.80;99.90
1468;DHT22;727;48.892;9.544;2022-09-27T02:27:41;10.90;99.90
1468;DHT22;727;48.892;9.544;2022-09-27T02:30:13;10.80;99.90
1468;DHT22;727;48.892;9.544;2022-09-27T02:32:42;10.80;99.90
1468;DHT22;727;48.892;9.544;2022-09-27T02:35:12;10.80;99.90
1468;DHT22;727;48.892;9.544;2022-09-27T02:37:40;10.90;99.90
1468;DHT22;727;48.892;9.544;2022-09-27T02:40:08;10.90;99.90
1468;DHT22;727;48.892;9.544;2022-09-27T02:42:36;10.90;99.90
1468;DHT22;727;48.892;9.544;2022-09-27T02:45:04;10.80;99.90
1468;DHT22;727;48.892;9.544;2022-09-27T02:47:46;10.80;99.90
1468;DHT22;727;48.892;9.544;2022-09-27T02:50:28;10.80;99.90
1468;DHT22;727;48.892;9.544;2022-09-27T02:53:02;10.90;99.90
1468;DHT22;727;48.892;9.544;2022-09-27T02:55:40;10.90;99.90
1468;DHT22;727;48.892;9.544;2022-09-27T02:58:16;10.80;99.90
1468;DHT22;727;48.892;9.544;2022-09-27T03:00:53;10.80;99.90
1468;DHT22;727;48.892;9.544;2022-09-27T03:03:29;10.80;99.90
1468;DHT22;727;48.892;9.544;2022-09-27T03:06:02;10.70;99.90
1468;DHT22;727;48.892;9.544;2022-09-27T03:08:30;10.70;99.90
1468;DHT22;727;48.892;9.544;2022-09-27T03:10:57;10.70;99.90
1468;DHT22;727;48.892;9.544;2022-09-27T03:13:23;10.70;99.90
1468;DHT22;727;48.892;9.544;2022-09-27T03:15:50;10.70;99.90
1468;DHT22;727;48.892;9.544;2022-09-27T03:18:17;10.70;99.90
1468;DHT22;727;48.892;9.544;2022-09-27T03:20:45;10.60;99.90
1468;DHT22;727;48.892;9.544;2022-09-27T03:23:12;10.60;99.90
1468;DHT22;727;48.892;9.544;2022-09-27T03:25:39;10.70;99.90
1468;DHT22;727;48.892;9.544;2022-09-27T03:28:06;10.60;99.90
1468;DHT22;727;48.892;9.544;2022-09-27T03:30:33;10.60;99.90
1468;DHT22;727;48.892;9.544;2022-09-27T03:33:02;10.60;99.90
1468;DHT22;727;48.892;9.544;2022-09-27T03:35:28;10.60;99.90
1468;DHT22;727;48.892;9.544;2022-09-27T03:37:56;10.60;99.90
1468;DHT22;727;48.892;9.544;2022-09-27T03:40:23;10.60;99.90
1468;DHT22;727;48.892;9.544;2022-09-27T03:42:50;10.60;99.90
1468;DHT22;727;48.892;9.544;2022-09-27T03:45:17;10.50;99.90
1468;DHT22;727;48.892;9.544;2022-09-27T03:47:44;10.40;99.90
1468;DHT22;727;48.892;9.544;2022-09-27T03:50:11;10.40;99.90
1468;DHT22;727;48.892;9.544;2022-09-27T03:52:38;10.40;99.90
1468;DHT22;727;48.892;9.544;2022-09-27T03:55:06;10.40;99.90
1468;DHT22;727;48.892;9.544;2022-09-27T03:57:33;10.40;99.90
1468;DHT22;727;48.892;9.544;2022-09-27T04:00:00;10.40;99.90
1468;DHT22;727;48.892;9.544;2022-09-27T04:02:27;10.40;99.90
1468;DHT22;727;48.892;9.544;2022-09-27T04:04:54;10.40;99.90
1468;DHT22;727;48.892;9.544;2022-09-27T04:07:20;10.40;99.90
1468;DHT22;727;48.892;9.544;2022-09-27T04:09:50;10.40;99.90
1468;DHT22;727;48.892;9.544;2022-09-27T04:12:18;10.30;99.90
1468;DHT22;727;48.892;9.544;2022-09-27T04:14:44;10.30;99.90
1468;DHT22;727;48.892;9.544;2022-09-27T04:17:11;10.30;99.90
1468;DHT22;727;48.892;9.544;2022-09-27T04:19:37;10.40;99.90
1468;DHT22;727;48.892;9.544;2022-09-27T04:22:04;10.30;99.90
1468;DHT22;727;48.892;9.544;2022-09-27T04:24:31;10.40;99.90
1468;DHT22;727;48.892;9.544;2022-09-27T04:26:58;10.40;99.90
1468;DHT22;727;48.892;9.544;2022-09-27T04:29:26;10.30;99.90
1468;DHT22;727;48.892;9.544;2022-09-27T04:31:53;10.40;99.90
1468;DHT22;727;48.892;9.544;2022-09-27T04:34:20;10.30;99.90
1468;DHT22;727;48.892;9.544;2022-09-27T04:37:08;10.30;99.90
1468;DHT22;727;48.892;9.544;2022-09-27T04:39:34;10.30;99.90
1468;DHT22;727;48.892;9.544;2022-09-27T04:42:01;10.30;99.90
1468;DHT22;727;48.892;9.544;2022-09-27T04:44:29;10.30;99.90
1468;DHT22;727;48.892;9.544;2022-09-27T04:46:56;10.40;99.90
1468;DHT22;727;48.892;9.544;2022-09-27T04:49:23;10.40;99.90
1468;DHT22;727;48.892;9.544;2022-09-27T04:51:49;10.30;99.90
1468;DHT22;727;48.892;9.544;2022-09-27T04:54:16;10.30;99.90
1468;DHT22;727;48.892;9.544;2022-09-27T04:56:43;10.30;99.90
1468;DHT22;727;48.892;9.544;2022-09-27T04:59:09;10.30;99.90
1468;DHT22;727;48.892;9.544;2022-09-27T05:01:37;10.40;99.90
1468;DHT22;727;48.892;9.544;2022-09-27T05:04:04;10.30;99.90
1468;DHT22;727;48.892;9.544;2022-09-27T05:06:31;10.30;99.90
1468;DHT22;727;48.892;9.544;2022-09-27T05:08:58;10.30;99.90
1468;DHT22;727;48.892;9.544;2022-09-27T05:11:25;10.30;99.90
1468;DHT22;727;48.892;9.544;2022-09-27T05:13:51;10.20;99.90
1468;DHT22;727;48.892;9.544;2022-09-27T05:16:18;10.30;99.90
1468;DHT22;727;48.892;9.544;2022-09-27T05:18:46;10.30;99.90
1468;DHT22;727;48.892;9.544;2022-09-27T05:21:13;10.20;99.90
1468;DHT22;727;48.892;9.544;2022-09-27T05:23:40;10.20;99.90
1468;DHT22;727;48.892;9.544;2022-09-27T05:26:07;10.30;99.90
1468;DHT22;727;48.892;9.544;2022-09-27T05:28:33;10.30;99.90
1468;DHT22;727;48.892;9.544;2022-09-27T05:31:00;10.30;99.90
1468;DHT22;727;48.892;9.544;2022-09-27T05:33:27;10.30;99.90
1468;DHT22;727;48.892;9.544;2022-09-27T05:35:56;10.30;99.90
1468;DHT22;727;48.892;9.544;2022-09-27T05:38:23;10.30;99.90
1468;DHT22;727;48.892;9.544;2022-09-27T05:40:50;10.30;99.90
1468;DHT22;727;48.892;9.544;2022-09-27T05:43:17;10.30;99.90
1468;DHT22;727;48.892;9.544;2022-09-27T05:45:44;10.30;99.90
1468;DHT22;727;48.892;9.544;2022-09-27T05:48:11;10.30;99.90
1468;DHT22;727;48.892;9.544;2022-09-27T05:50:39;10.30;99.90
1468;DHT22;727;48.892;9.544;2022-09-27T05:53:08;10.30;99.90
1468;DHT22;727;48.892;9.544;2022-09-27T05:55:35;10.30;99.90
1468;DHT22;727;48.892;9.544;2022-09-27T05:58:05;10.40;99.90
1468;DHT22;727;48.892;9.544;2022-09-27T06:00:33;10.40;99.90
1468;DHT22;727;48.892;9.544;2022-09-27T06:03:02;10.40;99.90
1468;DHT22;727;48.892;9.544;2022-09-27T06:05:33;10.40;99.90
1468;DHT22;727;48.892;9.544;2022-09-27T06:08:02;10.40;99.90
1468;DHT22;727;48.892;9.544;2022-09-27T06:10:31;10.30;99.90
1468;DHT22;727;48.892;9.544;2022-09-27T06:12:58;10.30;99.90
1468;DHT22;727;48.892;9.544;2022-09-27T06:15:26;10.30;99.90
1468;DHT22;727;48.892;9.544;2022-09-27T06:17:53;10.30;99.90
1468;DHT22;727;48.892;9.544;2022-09-27T06:20:20;10.30;99.90
1468;DHT22;727;48.892;9.544;2022-09-27T06:22:48;10.30;99.90
1468;DHT22;727;48.892;9.544;2022-09-27T06:25:15;10.30;99.90
1468;DHT22;727;48.892;9.544;2022-09-27T06:27:43;10.40;99.90
1468;DHT22;727;48.892;9.544;2022-09-27T06:30:10;10.40;99.90
1468;DHT22;727;48.892;9.544;2022-09-27T06:32:38;10.40;99.90
1468;DHT22;727;48.892;9.544;2022-09-27T06:35:05;10.40;99.90
1468;DHT22;727;48.892;9.544;2022-09-27T06:37:32;10.40;99.90
1468;DHT22;727;48.892;9.544;2022-09-27T06:39:59;10.40;99.90
1468;DHT22;727;48.892;9.544;2022-09-27T06:42:26;10.40;99.90
1468;DHT22;727;48.892;9.544;2022-09-27T06:44:55;10.40;99.90
1468;DHT22;727;48.892;9.544;2022-09-27T06:47:22;10.40;99.90
1468;DHT22;727;48.892;9.544;2022-09-27T06:49:50;10.40;99.90
1468;DHT22;727;48.892;9.544;2022-09-27T06:52:17;10.50;99.90
1468;DHT22;727;48.892;9.544;2022-09-27T06:54:43;10.40;99.90
1468;DHT22;727;48.892;9.544;2022-09-27T06:57:10;10.40;99.90
1468;DHT22;727;48.892;9.544;2022-09-27T07:00:00;10.40;99.90
1468;DHT22;727;48.892;9.544;2022-09-27T07:02:45;10.50;99.90
1468;DHT22;727;48.892;9.544;2022-09-27T07:05:11;10.50;99.90
1468;DHT22;727;48.892;9.544;2022-09-27T07:07:38;10.60;99.90
1468;DHT22;727;48.892;9.544;2022-09-27T07:10:06;10.50;99.90
1468;DHT22;727;48.892;9.544;2022-09-27T07:12:34;10.60;99.90
1468;DHT22;727;48.892;9.544;2022-09-27T07:15:04;10.60;99.90
1468;DHT22;727;48.892;9.544;2022-09-27T07:17:31;10.60;99.90
1468;DHT22;727;48.892;9.544;2022-09-27T07:19:57;10.60;99.90
1468;DHT22;727;48.892;9.544;2022-09-27T07:22:24;10.60;99.90
1468;DHT22;727;48.892;9.544;2022-09-27T07:24:51;10.60;99.90
1468;DHT22;727;48.892;9.544;2022-09-27T07:27:18;10.50;99.90
1468;DHT22;727;48.892;9.544;2022-09-27T07:29:44;10.40;99.90
1468;DHT22;727;48.892;9.544;2022-09-27T07:32:13;10.40;99.90
1468;DHT22;727;48.892;9.544;2022-09-27T07:34:39;10.40;99.90
1468;DHT22;727;48.892;9.544;2022-09-27T07:37:06;10.50;99.90
1468;DHT22;727;48.892;9.544;2022-09-27T07:39:33;10.60;99.90
1468;DHT22;727;48.892;9.544;2022-09-27T07:42:00;10.80;99.90
1468;DHT22;727;48.892;9.544;2022-09-27T07:44:27;10.80;99.90
1468;DHT22;727;48.892;9.544;2022-09-27T07:46:53;10.80;99.90
1468;DHT22;727;48.892;9.544;2022-09-27T07:49:21;10.70;99.90
1468;DHT22;727;48.892;9.544;2022-09-27T07:51:48;10.70;99.90
1468;DHT22;727;48.892;9.544;2022-09-27T07:54:16;10.70;99.90
1468;DHT22;727;48.892;9.544;2022-09-27T07:56:44;10.80;99.90
1468;DHT22;727;48.892;9.544;2022-09-27T07:59:10;10.90;99.90
1468;DHT22;727;48.892;9.544;2022-09-27T08:01:37;11.00;99.90
1468;DHT22;727;48.892;9.544;2022-09-27T08:04:04;11.00;99.90
1468;DHT22;727;48.892;9.544;2022-09-27T08:06:32;11.00;99.90
1468;DHT22;727;48.892;9.544;2022-09-27T08:08:59;10.90;99.90
1468;DHT22;727;48.892;9.544;2022-09-27T08:11:27;10.90;99.90
1468;DHT22;727;48.892;9.544;2022-09-27T08:13:54;10.90;99.90
1468;DHT22;727;48.892;9.544;2022-09-27T08:16:21;10.80;99.90
1468;DHT22;727;48.892;9.544;2022-09-27T08:18:48;10.70;99.90
1468;DHT22;727;48.892;9.544;2022-09-27T08:21:14;10.80;99.90
1468;DHT22;727;48.892;9.544;2022-09-27T08:23:43;10.90;99.90
1468;DHT22;727;48.892;9.544;2022-09-27T08:26:09;11.10;99.90
1468;DHT22;727;48.892;9.544;2022-09-27T08:28:36;11.30;99.90
1468;DHT22;727;48.892;9.544;2022-09-27T08:31:03;11.70;99.90
1468;DHT22;727;48.892;9.544;2022-09-27T08:33:30;12.20;99.90
1468;DHT22;727;48.892;9.544;2022-09-27T08:35:56;12.50;99.90
1468;DHT22;727;48.892;9.544;2022-09-27T08:38:23;12.60;99.90
1468;DHT22;727;48.892;9.544;2022-09-27T08:40:53;12.60;99.90
1468;DHT22;727;48.892;9.544;2022-09-27T08:43:29;12.40;99.90
1468;DHT22;727;48.892;9.544;2022-09-27T08:46:14;12.10;99.90
1468;DHT22;727;48.892;9.544;2022-09-27T08:48:43;11.80;99.90
1468;DHT22;727;48.892;9.544;2022-09-27T08:51:11;11.70;99.90
1468;DHT22;727;48.892;9.544;2022-09-27T08:53:44;11.60;99.90
1468;DHT22;727;48.892;9.544;2022-09-27T08:56:16;11.60;99.90
1468;DHT22;727;48.892;9.544;2022-09-27T08:58:48;11.80;99.90
1468;DHT22;727;48.892;9.544;2022-09-27T09:01:18;11.90;99.90
1468;DHT22;727;48.892;9.544;2022-09-27T09:03:47;12.20;99.90
1468;DHT22;727;48.892;9.544;2022-09-27T09:06:20;12.30;99.90
1468;DHT22;727;48.892;9.544;2022-09-27T09:08:55;12.30;99.90
1468;DHT22;727;48.892;9.544;2022-09-27T09:11:45;12.20;99.90
1468;DHT22;727;48.892;9.544;2022-09-27T09:14:41;12.20;99.90
1468;DHT22;727;48.892;9.544;2022-09-27T09:17:19;12.50;99.90
1468;DHT22;727;48.892;9.544;2022-09-27T09:20:02;12.60;99.90
1468;DHT22;727;48.892;9.544;2022-09-27T09:22:46;12.60;99.90
1468;DHT22;727;48.892;9.544;2022-09-27T09:25:22;12.50;99.90
1468;DHT22;727;48.892;9.544;2022-09-27T09:28:03;12.30;99.90
1468;DHT22;727;48.892;9.544;2022-09-27T09:30:39;12.10;99.90
1468;DHT22;727;48.892;9.544;2022-09-27T09:33:19;12.10;99.90
1468;DHT22;727;48.892;9.544;2022-09-27T09:35:51;12.30;99.90
1468;DHT22;727;48.892;9.544;2022-09-27T09:38:24;12.50;99.90
1468;DHT22;727;48.892;9.544;2022-09-27T09:40:56;12.50;99.90
1468;DHT22;727;48.892;9.544;2022-09-27T09:43:29;12.50;99.90
1468;DHT22;727;48.892;9.544;2022-09-27T09:46:02;12.70;99.90
1468;DHT22;727;48.892;9.544;2022-09-27T09:48:37;12.90;99.90
1468;DHT22;727;48.892;9.544;2022-09-27T09:51:07;12.90;99.90
1468;DHT22;727;48.892;9.544;2022-09-27T09:53:40;13.30;99.90
1468;DHT22;727;48.892;9.544;2022-09-27T09:56:13;14.20;99.90
1468;DHT22;727;48.892;9.544;2022-09-27T09:58:45;14.40;99.90
1468;DHT22;727;48.892;9.544;2022-09-27T10:01:17;16.30;97.90
1468;DHT22;727;48.892;9.544;2022-09-27T10:03:44;17.70;95.80
1468;DHT22;727;48.892;9.544;2022-09-27T10:06:12;17.80;91.70
1468;DHT22;727;48.892;9.544;2022-09-27T10:08:40;17.10;93.20
1468;DHT22;727;48.892;9.544;2022-09-27T10:11:15;16.60;93.10
1468;DHT22;727;48.892;9.544;2022-09-27T10:13:46;16.00;93.80
1468;DHT22;727;48.892;9.544;2022-09-27T10:16:15;15.90;94.50
1468;DHT22;727;48.892;9.544;2022-09-27T10:18:43;16.30;93.50
1468;DHT22;727;48.892;9.544;2022-09-27T10:21:14;16.40;94.70
1468;DHT22;727;48.892;9.544;2022-09-27T10:24:01;16.30;94.30
1468;DHT22;727;48.892;9.544;2022-09-27T10:26:29;15.90;93.10
1468;DHT22;727;48.892;9.544;2022-09-27T10:29:13;15.70;93.80
1468;DHT22;727;48.892;9.544;2022-09-27T10:31:41;16.40;93.40
1468;DHT22;727;48.892;9.544;2022-09-27T10:34:17;16.20;92.40
1468;DHT22;727;48.892;9.544;2022-09-27T10:36:46;15.80;91.80
1468;DHT22;727;48.892;9.544;2022-09-27T10:39:27;15.50;92.70
1468;DHT22;727;48.892;9.544;2022-09-27T10:41:53;15.50;93.00
1468;DHT22;727;48.892;9.544;2022-09-27T10:44:25;15.70;93.20
1468;DHT22;727;48.892;9.544;2022-09-27T10:46:53;15.60;93.10
1468;DHT22;727;48.892;9.544;2022-09-27T10:49:25;15.50;92.60
1468;DHT22;727;48.892;9.544;2022-09-27T10:51:54;15.50;93.50
1468;DHT22;727;48.892;9.544;2022-09-27T10:54:23;16.20;91.90
1468;DHT22;727;48.892;9.544;2022-09-27T10:57:00;16.70;89.60
1468;DHT22;727;48.892;9.544;2022-09-27T10:59:32;16.50;89.60
1468;DHT22;727;48.892;9.544;2022-09-27T11:02:00;16.30;90.40
1468;DHT22;727;48.892;9.544;2022-09-27T11:04:29;15.90;89.90
1468;DHT22;727;48.892;9.544;2022-09-27T11:07:10;15.40;90.60
1468;DHT22;727;48.892;9.544;2022-09-27T11:09:47;15.20;91.80
1468;DHT22;727;48.892;9.544;2022-09-27T11:12:15;15.10;94.10
1468;DHT22;727;48.892;9.544;2022-09-27T11:14:51;15.10;94.20
1468;DHT22;727;48.892;9.544;2022-09-27T11:17:23;14.80;93.50
1468;DHT22;727;48.892;9.544;2022-09-27T11:20:23;14.40;94.10
1468;DHT22;727;48.892;9.544;2022-09-27T11:23:19;14.10;95.10
1468;DHT22;727;48.892;9.544;2022-09-27T11:26:03;13.70;96.00
1468;DHT22;727;48.892;9.544;2022-09-27T11:28:42;13.40;96.60
1468;DHT22;727;48.892;9.544;2022-09-27T11:31:21;13.20;98.40
1468;DHT22;727;48.892;9.544;2022-09-27T11:34:06;13.20;98.60
1468;DHT22;727;48.892;9.544;2022-09-27T11:36:50;13.30;99.60
1468;DHT22;727;48.892;9.544;2022-09-27T11:39:27;13.40;99.90
1468;DHT22;727;48.892;9.544;2022-09-27T11:42:09;13.50;99.60
1468;DHT22;727;48.892;9.544;2022-09-27T11:44:52;13.50;99.80
1468;DHT22;727;48.892;9.544;2022-09-27T11:47:29;13.50;99.30
1468;DHT22;727;48.892;9.544;2022-09-27T11:50:24;13.30;99.90
1468;DHT22;727;48.892;9.544;2022-09-27T11:53:06;13.20;99.90
1468;DHT22;727;48.892;9.544;2022-09-27T11:55:42;13.20;99.90
1468;DHT22;727;48.892;9.544;2022-09-27T11:58:18;13.10;99.90
1468;DHT22;727;48.892;9.544;2022-09-27T12:00:57;13.00;99.90
1468;DHT22;727;48.892;9.544;2022-09-27T12:03:55;13.00;99.90
1468;DHT22;727;48.892;9.544;2022-09-27T12:06:33;12.80;99.90
1468;DHT22;727;48.892;9.544;2022-09-27T12:09:06;12.60;99.90
1468;DHT22;727;48.892;9.544;2022-09-27T12:11:38;12.30;99.90
1468;DHT22;727;48.892;9.544;2022-09-27T12:14:13;12.20;99.90
1468;DHT22;727;48.892;9.544;2022-09-27T12:16:45;12.00;99.90
1468;DHT22;727;48.892;9.544;2022-09-27T12:19:18;11.70;99.90
1468;DHT22;727;48.892;9.544;2022-09-27T12:21:45;11.20;99.90
1468;DHT22;727;48.892;9.544;2022-09-27T12:24:18;10.50;99.90
1468;DHT22;727;48.892;9.544;2022-09-27T12:26:47;10.00;99.90
1468;DHT22;727;48.892;9.544;2022-09-27T12:29:19;9.80;99.90
1468;DHT22;727;48.892;9.544;2022-09-27T12:31:53;9.80;99.90
1468;DHT22;727;48.892;9.544;2022-09-27T12:34:26;9.90;99.90
1468;DHT22;727;48.892;9.544;2022-09-27T12:36:59;9.80;99.90
1468;DHT22;727;48.892;9.544;2022-09-27T12:39:36;9.90;99.90
1468;DHT22;727;48.892;9.544;2022-09-27T12:42:13;9.90;99.90
1468;DHT22;727;48.892;9.544;2022-09-27T12:44:42;10.00;99.90
1468;DHT22;727;48.892;9.544;2022-09-27T12:47:17;10.10;99.90
1468;DHT22;727;48.892;9.544;2022-09-27T12:49:56;10.20;99.90
1468;DHT22;727;48.892;9.544;2022-09-27T12:52:30;10.30;99.90
1468;DHT22;727;48.892;9.544;2022-09-27T12:55:41;10.20;99.90
1468;DHT22;727;48.892;9.544;2022-09-27T13:01:17;10.40;99.90
1468;DHT22;727;48.892;9.544;2022-09-27T13:03:59;10.50;99.90
1468;DHT22;727;48.892;9.544;2022-09-27T13:06:39;10.60;99.90
1468;DHT22;727;48.892;9.544;2022-09-27T13:09:36;10.80;99.90
1468;DHT22;727;48.892;9.544;2022-09-27T13:12:09;10.90;99.90
1468;DHT22;727;48.892;9.544;2022-09-27T13:14:53;11.00;99.90
1468;DHT22;727;48.892;9.544;2022-09-27T13:17:50;11.00;99.90
1468;DHT22;727;48.892;9.544;2022-09-27T13:20:39;11.10;99.90
1468;DHT22;727;48.892;9.544;2022-09-27T13:26:48;11.40;99.90
1468;DHT22;727;48.892;9.544;2022-09-27T13:29:30;11.70;99.90
1468;DHT22;727;48.892;9.544;2022-09-27T13:32:10;11.90;99.90
1468;DHT22;727;48.892;9.544;2022-09-27T13:34:41;12.10;99.90
1468;DHT22;727;48.892;9.544;2022-09-27T13:37:31;12.10;99.90
1468;DHT22;727;48.892;9.544;2022-09-27T13:40:30;12.20;99.90
1468;DHT22;727;48.892;9.544;2022-09-27T13:46:14;11.80;99.90
1468;DHT22;727;48.892;9.544;2022-09-27T13:48:45;11.40;99.90
1468;DHT22;727;48.892;9.544;2022-09-27T13:51:19;11.10;99.90
1468;DHT22;727;48.892;9.544;2022-09-27T13:53:59;10.80;99.90
1468;DHT22;727;48.892;9.544;2022-09-27T13:56:52;10.70;99.90
1468;DHT22;727;48.892;9.544;2022-09-27T13:59:25;10.60;99.90
1468;DHT22;727;48.892;9.544;2022-09-27T14:02:01;10.40;99.90
1468;DHT22;727;48.892;9.544;2022-09-27T14:04:35;10.30;99.90
1468;DHT22;727;48.892;9.544;2022-09-27T14:07:03;10.20;99.90
1468;DHT22;727;48.892;9.544;2022-09-27T14:09:31;10.10;99.90
1468;DHT22;727;48.892;9.544;2022-09-27T14:12:02;10.10;99.90
1468;DHT22;727;48.892;9.544;2022-09-27T14:14:31;10.10;99.90
1468;DHT22;727;48.892;9.544;2022-09-27T14:17:01;10.10;99.90
1468;DHT22;727;48.892;9.544;2022-09-27T14:19:32;10.10;99.90
1468;DHT22;727;48.892;9.544;2022-09-27T14:22:04;10.20;99.90
1468;DHT22;727;48.892;9.544;2022-09-27T14:24:41;10.20;99.90
1468;DHT22;727;48.892;9.544;2022-09-27T14:27:12;10.10;99.90
1468;DHT22;727;48.892;9.544;2022-09-27T14:29:45;10.10;99.90
1468;DHT22;727;48.892;9.544;2022-09-27T14:32:15;10.10;99.90
1468;DHT22;727;48.892;9.544;2022-09-27T14:34:43;10.20;99.90
1468;DHT22;727;48.892;9.544;2022-09-27T14:37:28;10.30;99.90
1468;DHT22;727;48.892;9.544;2022-09-27T14:39:56;10.40;99.90
1468;DHT22;727;48.892;9.544;2022-09-27T14:42:25;10.40;99.90
1468;DHT22;727;48.892;9.544;2022-09-27T14:44:58;10.40;99.90
1468;DHT22;727;48.892;9.544;2022-09-27T14:47:28;10.40;99.90
1468;DHT22;727;48.892;9.544;2022-09-27T14:49:56;10.40;99.90
1468;DHT22;727;48.892;9.544;2022-09-27T14:52:25;10.40;99.90
1468;DHT22;727;48.892;9.544;2022-09-27T14:54:56;10.40;99.90
1468;DHT22;727;48.892;9.544;2022-09-27T14:57:23;10.40;99.90
1468;DHT22;727;48.892;9.544;2022-09-27T14:59:51;10.40;99.90
1468;DHT22;727;48.892;9.544;2022-09-27T15:02:20;10.40;99.90
1468;DHT22;727;48.892;9.544;2022-09-27T15:04:49;10.40;99.90
1468;DHT22;727;48.892;9.544;2022-09-27T15:07:17;10.50;99.90
1468;DHT22;727;48.892;9.544;2022-09-27T15:09:47;10.80;99.90
1468;DHT22;727;48.892;9.544;2022-09-27T15:12:20;10.90;99.90
1468;DHT22;727;48.892;9.544;2022-09-27T15:14:49;11.20;99.90
1468;DHT22;727;48.892;9.544;2022-09-27T15:17:18;11.30;99.90
1468;DHT22;727;48.892;9.544;2022-09-27T15:19:58;11.50;99.90
1468;DHT22;727;48.892;9.544;2022-09-27T15:22:34;11.70;99.90
1468;DHT22;727;48.892;9.544;2022-09-27T15:25:10;11.60;99.90
1468;DHT22;727;48.892;9.544;2022-09-27T15:27:46;11.80;99.90
1468;DHT22;727;48.892;9.544;2022-09-27T15:30:16;12.10;99.90
1468;DHT22;727;48.892;9.544;2022-09-27T15:32:47;12.30;99.90
1468;DHT22;727;48.892;9.544;2022-09-27T15:35:24;12.30;99.90
1468;DHT22;727;48.892;9.544;2022-09-27T15:37:51;12.10;99.90
1468;DHT22;727;48.892;9.544;2022-09-27T15:43:20;11.70;99.90
1468;DHT22;727;48.892;9.544;2022-09-27T15:45:50;11.50;99.90
1468;DHT22;727;48.892;9.544;2022-09-27T15:48:18;11.40;99.90
1468;DHT22;727;48.892;9.544;2022-09-27T15:50:47;11.40;99.90
1468;DHT22;727;48.892;9.544;2022-09-27T15:53:42;11.30;99.90
1468;DHT22;727;48.892;9.544;2022-09-27T15:56:13;11.20;99.90
1468;DHT22;727;48.892;9.544;2022-09-27T15:58:41;11.20;99.90
1468;DHT22;727;48.892;9.544;2022-09-27T16:01:17;11.00;99.90
1468;DHT22;727;48.892;9.544;2022-09-27T16:03:46;11.00;99.90
1468;DHT22;727;48.892;9.544;2022-09-27T16:06:14;11.00;99.90
1468;DHT22;727;48.892;9.544;2022-09-27T16:08:41;11.00;99.90
1468;DHT22;727;48.892;9.544;2022-09-27T16:11:13;11.00;99.90
1468;DHT22;727;48.892;9.544;2022-09-27T16:13:40;11.00;99.90
1468;DHT22;727;48.892;9.544;2022-09-27T16:16:12;11.00;99.90
1468;DHT22;727;48.892;9.544;2022-09-27T16:18:40;11.00;99.90
1468;DHT22;727;48.892;9.544;2022-09-27T16:21:06;10.90;99.90
1468;DHT22;727;48.892;9.544;2022-09-27T16:23:35;10.80;99.90
1468;DHT22;727;48.892;9.544;2022-09-27T16:26:02;10.80;99.90
1468;DHT22;727;48.892;9.544;2022-09-27T16:28:29;10.70;99.90
1468;DHT22;727;48.892;9.544;2022-09-27T16:31:00;10.60;99.90
1468;DHT22;727;48.892;9.544;2022-09-27T16:33:28;10.50;99.90
1468;DHT22;727;48.892;9.544;2022-09-27T16:35:55;10.40;99.90
1468;DHT22;727;48.892;9.544;2022-09-27T16:38:22;10.40;99.90
1468;DHT22;727;48.892;9.544;2022-09-27T16:40:52;10.30;99.90
1468;DHT22;727;48.892;9.544;2022-09-27T16:43:19;10.20;99.90
1468;DHT22;727;48.892;9.544;2022-09-27T16:45:46;10.10;99.90
1468;DHT22;727;48.892;9.544;2022-09-27T16:48:14;10.00;99.90
1468;DHT22;727;48.892;9.544;2022-09-27T16:50:41;9.90;99.90
1468;DHT22;727;48.892;9.544;2022-09-27T16:53:25;9.80;99.90
1468;DHT22;727;48.892;9.544;2022-09-27T16:55:57;9.70;99.90
1468;DHT22;727;48.892;9.544;2022-09-27T16:58:24;9.70;99.90
1468;DHT22;727;48.892;9.544;2022-09-27T17:00:55;9.60;99.90